Ofertas de vuelos a Natal

Encontranos en
En el mes de
SalidaRegresoDíasConexionesDisponibilidadDisp.
Vie 23/04/20212021-04-23Lun 03/05/20212021-05-0310ConexionesVer disponibilidad>04https://an.despegar.com/ad/1040?q=shop%2Fflights%2Fresults%2Froundtrip%2FBUE%2FNAT%2F2021-04-23%2F2021-05-03%2F1%2F0%2F0
Sab 01/05/20212021-05-01Jue 20/05/20212021-05-2019ConexionesVer disponibilidad>05https://an.despegar.com/ad/1040?q=shop%2Fflights%2Fresults%2Froundtrip%2FBUE%2FNAT%2F2021-05-01%2F2021-05-20%2F1%2F0%2F0
Sab 15/05/20212021-05-15Sab 05/06/20212021-06-0521ConexionesVer disponibilidad>05https://an.despegar.com/ad/1040?q=shop%2Fflights%2Fresults%2Froundtrip%2FBUE%2FNAT%2F2021-05-15%2F2021-06-05%2F1%2F0%2F0
Lun 17/05/20212021-05-17Mar 25/05/20212021-05-258ConexionesVer disponibilidad>05https://an.despegar.com/ad/1040?q=shop%2Fflights%2Fresults%2Froundtrip%2FBUE%2FNAT%2F2021-05-17%2F2021-05-25%2F1%2F0%2F0
Mie 19/05/20212021-05-19Jue 27/05/20212021-05-278ConexionesVer disponibilidad>05https://an.despegar.com/ad/1040?q=shop%2Fflights%2Fresults%2Froundtrip%2FBUE%2FNAT%2F2021-05-19%2F2021-05-27%2F1%2F0%2F0
Mie 19/05/20212021-05-19Lun 31/05/20212021-05-3112ConexionesVer disponibilidad>05https://an.despegar.com/ad/1040?q=shop%2Fflights%2Fresults%2Froundtrip%2FBUE%2FNAT%2F2021-05-19%2F2021-05-31%2F1%2F0%2F0
Mie 19/05/20212021-05-19Vie 28/05/20212021-05-289ConexionesVer disponibilidad>05https://an.despegar.com/ad/1040?q=shop%2Fflights%2Fresults%2Froundtrip%2FBUE%2FNAT%2F2021-05-19%2F2021-05-28%2F1%2F0%2F0
Mar 25/05/20212021-05-25Vie 04/06/20212021-06-0410ConexionesVer disponibilidad>05https://an.despegar.com/ad/1040?q=shop%2Fflights%2Fresults%2Froundtrip%2FBUE%2FNAT%2F2021-05-25%2F2021-06-04%2F1%2F0%2F0
Mie 16/06/20212021-06-16Vie 02/07/20212021-07-0216ConexionesVer disponibilidad>06https://an.despegar.com/ad/1040?q=shop%2Fflights%2Fresults%2Froundtrip%2FBUE%2FNAT%2F2021-06-16%2F2021-07-02%2F1%2F0%2F0
Vie 18/06/20212021-06-18Sab 26/06/20212021-06-268ConexionesVer disponibilidad>06https://an.despegar.com/ad/1040?q=shop%2Fflights%2Fresults%2Froundtrip%2FBUE%2FNAT%2F2021-06-18%2F2021-06-26%2F1%2F0%2F0
Sab 26/06/20212021-06-26Mar 06/07/20212021-07-0610ConexionesVer disponibilidad>06https://an.despegar.com/ad/1040?q=shop%2Fflights%2Fresults%2Froundtrip%2FBUE%2FNAT%2F2021-06-26%2F2021-07-06%2F1%2F0%2F0
Mar 03/08/20212021-08-03Mar 17/08/20212021-08-1714ConexionesVer disponibilidad>08https://an.despegar.com/ad/1040?q=shop%2Fflights%2Fresults%2Froundtrip%2FBUE%2FNAT%2F2021-08-03%2F2021-08-17%2F1%2F0%2F0
Vie 13/08/20212021-08-13Lun 23/08/20212021-08-2310ConexionesVer disponibilidad>08https://an.despegar.com/ad/1040?q=shop%2Fflights%2Fresults%2Froundtrip%2FBUE%2FNAT%2F2021-08-13%2F2021-08-23%2F1%2F0%2F0
Sab 14/08/20212021-08-14Mar 31/08/20212021-08-3117ConexionesVer disponibilidad>08https://an.despegar.com/ad/1040?q=shop%2Fflights%2Fresults%2Froundtrip%2FBUE%2FNAT%2F2021-08-14%2F2021-08-31%2F1%2F0%2F0
Dom 29/08/20212021-08-29Dom 05/09/20212021-09-057ConexionesVer disponibilidad>08https://an.despegar.com/ad/1040?q=shop%2Fflights%2Fresults%2Froundtrip%2FBUE%2FNAT%2F2021-08-29%2F2021-09-05%2F1%2F0%2F0
Mie 01/09/20212021-09-01Vie 10/09/20212021-09-109ConexionesVer disponibilidad>09https://an.despegar.com/ad/1040?q=shop%2Fflights%2Fresults%2Froundtrip%2FBUE%2FNAT%2F2021-09-01%2F2021-09-10%2F1%2F0%2F0
Mar 14/09/20212021-09-14Vie 24/09/20212021-09-2410ConexionesVer disponibilidad>09https://an.despegar.com/ad/1040?q=shop%2Fflights%2Fresults%2Froundtrip%2FBUE%2FNAT%2F2021-09-14%2F2021-09-24%2F1%2F0%2F0
Jue 30/09/20212021-09-30Dom 10/10/20212021-10-1010ConexionesVer disponibilidad>09https://an.despegar.com/ad/1040?q=shop%2Fflights%2Fresults%2Froundtrip%2FBUE%2FNAT%2F2021-09-30%2F2021-10-10%2F1%2F0%2F0
Sab 02/10/20212021-10-02Sab 09/10/20212021-10-097ConexionesVer disponibilidad>10https://an.despegar.com/ad/1040?q=shop%2Fflights%2Fresults%2Froundtrip%2FBUE%2FNAT%2F2021-10-02%2F2021-10-09%2F1%2F0%2F0
Mar 05/10/20212021-10-05Mar 19/10/20212021-10-1914ConexionesVer disponibilidad>10https://an.despegar.com/ad/1040?q=shop%2Fflights%2Fresults%2Froundtrip%2FBUE%2FNAT%2F2021-10-05%2F2021-10-19%2F1%2F0%2F0
Jue 07/10/20212021-10-07Lun 18/10/20212021-10-1811ConexionesVer disponibilidad>10https://an.despegar.com/ad/1040?q=shop%2Fflights%2Fresults%2Froundtrip%2FBUE%2FNAT%2F2021-10-07%2F2021-10-18%2F1%2F0%2F0
Sab 09/10/20212021-10-09Sab 16/10/20212021-10-167ConexionesVer disponibilidad>10https://an.despegar.com/ad/1040?q=shop%2Fflights%2Fresults%2Froundtrip%2FBUE%2FNAT%2F2021-10-09%2F2021-10-16%2F1%2F0%2F0
Lun 01/11/20212021-11-01Mie 17/11/20212021-11-1716ConexionesVer disponibilidad>11https://an.despegar.com/ad/1040?q=shop%2Fflights%2Fresults%2Froundtrip%2FBUE%2FNAT%2F2021-11-01%2F2021-11-17%2F1%2F0%2F0
Jue 04/11/20212021-11-04Vie 12/11/20212021-11-128ConexionesVer disponibilidad>11https://an.despegar.com/ad/1040?q=shop%2Fflights%2Fresults%2Froundtrip%2FBUE%2FNAT%2F2021-11-04%2F2021-11-12%2F1%2F0%2F0

Es posible que la disponibilidad de vuelos hacia este destino se vea afectada debido al COVID-19. Si es tu caso, te invitamos a realizar una nueva búsqueda a través de este link.

Asistencia al viajero

Cotiza tu ASSIST CARD

Origen
Destino

Información general sobre Natal

Natal, que en español significa Navidad, es una ciudad brasileña localizada en el estado de Rio Grande do Norte. Atravesada por el río Potengi, la capital nordestina cuenta con playas, dunas y diferentes atracciones históricas. Anualmente recibe a dos millones de turistas y es la puerta de entrada hacia otros importantes destinos del estado.

Pasajes Aéreos y Vuelos Baratos a Natal

Descargá gratis nuestra nueva app para Android y iOS.
Suscribite a las notificaciones de Chrome y Safari.
Seguinos en Facebook, Twitter e Instagram
Suscribite a nuestro newsletter aquí.